createdAt,value
2018-05-17T00:00:46.565Z,16.17
2018-05-17T00:03:15.481Z,16.70
2018-05-17T00:05:43.557Z,16.37
2018-05-17T00:08:11.660Z,15.43
2018-05-17T00:10:39.788Z,14.93
2018-05-17T00:13:07.945Z,16.07
2018-05-17T00:15:36.822Z,16.57
2018-05-17T00:18:04.961Z,16.00
2018-05-17T00:20:33.119Z,16.63
2018-05-17T00:23:02.047Z,16.07
2018-05-17T00:25:30.160Z,17.30
2018-05-17T00:27:58.289Z,15.37
2018-05-17T00:30:27.211Z,17.03
2018-05-17T00:32:55.320Z,16.23
2018-05-17T00:35:23.433Z,15.77
2018-05-17T00:37:51.592Z,15.30
2018-05-17T00:40:19.714Z,14.83
2018-05-17T00:42:47.843Z,16.20
2018-05-17T00:45:15.959Z,15.13
2018-05-17T00:47:44.065Z,15.07
2018-05-17T00:50:12.210Z,15.33
2018-05-17T00:52:40.396Z,14.33
2018-05-17T00:55:08.534Z,14.37
2018-05-17T00:57:36.639Z,13.77
2018-05-17T01:00:05.565Z,14.03
2018-05-17T01:02:33.671Z,14.20
2018-05-17T01:05:01.883Z,15.47
2018-05-17T01:07:29.982Z,16.10
2018-05-17T01:09:58.130Z,17.67
2018-05-17T01:12:26.827Z,16.93
2018-05-17T01:14:55.493Z,16.23
2018-05-17T01:17:23.817Z,17.60
2018-05-17T01:19:53.163Z,17.00
2018-05-17T01:22:22.915Z,19.63
2018-05-17T01:24:51.784Z,19.53
2018-05-17T01:27:19.896Z,18.73
2018-05-17T01:29:48.787Z,20.17
2018-05-17T01:32:17.687Z,19.40
2018-05-17T01:34:45.808Z,20.10
2018-05-17T01:37:25.766Z,20.07
2018-05-17T01:39:54.724Z,23.30
2018-05-17T01:42:22.885Z,22.30
2018-05-17T01:44:51.017Z,22.90
2018-05-17T01:47:19.131Z,25.10
2018-05-17T01:49:47.304Z,25.50
2018-05-17T01:52:16.189Z,26.93
2018-05-17T01:54:44.296Z,25.60
2018-05-17T01:57:12.416Z,27.73
2018-05-17T01:59:40.556Z,29.33
2018-05-17T02:02:09.450Z,29.20
2018-05-17T02:04:37.561Z,31.37
2018-05-17T02:07:05.732Z,32.27
2018-05-17T02:09:34.675Z,30.70
2018-05-17T02:12:02.800Z,30.97
2018-05-17T02:14:30.880Z,31.90
2018-05-17T02:16:58.982Z,29.50
2018-05-17T02:19:27.858Z,33.33
2018-05-17T02:21:55.989Z,33.17
2018-05-17T02:24:24.879Z,32.00
2018-05-17T02:26:53.778Z,34.90
2018-05-17T02:29:21.910Z,32.97
2018-05-17T02:31:50.028Z,35.43
2018-05-17T02:34:18.193Z,33.40
2018-05-17T02:36:46.305Z,33.93
2018-05-17T02:39:14.441Z,36.60
2018-05-17T02:41:42.609Z,30.73
2018-05-17T02:44:11.504Z,34.37
2018-05-17T02:46:40.405Z,32.73
2018-05-17T02:49:09.318Z,31.53
2018-05-17T02:51:37.456Z,32.43
2018-05-17T02:54:05.597Z,33.27
2018-05-17T02:56:33.746Z,32.37
2018-05-17T02:59:01.898Z,32.80
2018-05-17T03:01:30.052Z,33.07
2018-05-17T03:03:58.968Z,33.47
2018-05-17T03:06:27.072Z,34.10
2018-05-17T03:08:55.188Z,32.63
2018-05-17T03:11:23.322Z,31.67
2018-05-17T03:13:52.218Z,30.97
2018-05-17T03:16:20.325Z,28.13
2018-05-17T03:18:48.454Z,28.20
2018-05-17T03:21:16.678Z,27.93
2018-05-17T03:23:45.539Z,28.03
2018-05-17T03:26:13.668Z,28.67
2018-05-17T03:28:41.805Z,27.10
2018-05-17T03:31:10.372Z,27.50
2018-05-17T03:33:38.492Z,28.20
2018-05-17T03:36:06.663Z,28.03
2018-05-17T03:38:34.856Z,26.27
2018-05-17T03:41:03.017Z,25.70
2018-05-17T03:43:31.133Z,27.50
2018-05-17T03:45:59.249Z,25.47
2018-05-17T03:48:28.159Z,23.60
2018-05-17T03:50:57.069Z,24.50
2018-05-17T03:53:25.183Z,28.10
2018-05-17T03:55:53.358Z,23.90
2018-05-17T03:58:21.487Z,21.77
2018-05-17T04:01:01.483Z,22.00
2018-05-17T04:03:42.247Z,23.80
2018-05-17T04:06:23.329Z,23.00
2018-05-17T04:08:51.452Z,23.83
2018-05-17T04:11:19.594Z,23.43
2018-05-17T04:13:47.734Z,22.07
2018-05-17T04:16:16.609Z,20.90
2018-05-17T04:18:45.472Z,19.43
2018-05-17T04:21:13.809Z,21.77
2018-05-17T04:23:42.684Z,19.10
2018-05-17T04:26:10.822Z,18.93
2018-05-17T04:28:38.939Z,19.97
2018-05-17T04:31:07.076Z,21.10
2018-05-17T04:33:35.284Z,21.50
2018-05-17T04:36:03.319Z,24.50
2018-05-17T04:38:31.494Z,25.87
2018-05-17T04:40:59.638Z,29.63
2018-05-17T04:43:27.744Z,30.60
2018-05-17T04:45:55.858Z,32.57
2018-05-17T04:48:23.967Z,34.90
2018-05-17T04:50:52.873Z,30.57
2018-05-17T04:53:21.014Z,34.47
2018-05-17T04:55:49.185Z,35.10
2018-05-17T04:58:17.268Z,34.80
2018-05-17T05:00:45.373Z,36.60
2018-05-17T05:03:13.492Z,36.20
2018-05-17T05:05:42.382Z,33.87
2018-05-17T05:08:11.251Z,37.63
2018-05-17T05:10:39.424Z,36.73
2018-05-17T05:13:07.554Z,39.53
2018-05-17T05:15:35.663Z,38.27
2018-05-17T05:18:04.539Z,36.13
2018-05-17T05:20:32.631Z,38.37
2018-05-17T05:23:00.771Z,38.07
2018-05-17T05:25:28.921Z,38.23
2018-05-17T05:27:57.787Z,41.77
2018-05-17T05:30:25.934Z,41.93
2018-05-17T05:32:54.068Z,41.20
2018-05-17T05:35:22.204Z,42.57
2018-05-17T05:37:50.301Z,41.87
2018-05-17T05:40:18.406Z,42.13
2018-05-17T05:42:46.548Z,40.60
2018-05-17T05:45:15.481Z,41.27
2018-05-17T05:47:43.616Z,39.83
2018-05-17T05:50:12.487Z,37.90
2018-05-17T05:52:40.622Z,36.97
2018-05-17T05:55:08.743Z,37.30
2018-05-17T05:57:36.923Z,35.57
2018-05-17T06:00:05.050Z,37.93
2018-05-17T06:02:33.172Z,35.97
2018-05-17T06:05:01.312Z,38.73
2018-05-17T06:07:29.466Z,36.17
2018-05-17T06:09:57.571Z,37.73
2018-05-17T06:12:25.688Z,37.97
2018-05-17T06:14:53.837Z,37.00
2018-05-17T06:17:21.977Z,36.77
2018-05-17T06:19:50.076Z,38.40
2018-05-17T06:22:18.196Z,35.43
2018-05-17T06:24:46.307Z,34.20
2018-05-17T06:27:14.425Z,37.57
2018-05-17T06:29:42.527Z,33.53
2018-05-17T06:32:10.703Z,31.63
2018-05-17T06:34:38.791Z,30.23
2018-05-17T06:37:06.926Z,28.33
2018-05-17T06:39:35.024Z,28.53
2018-05-17T06:42:03.154Z,27.17
2018-05-17T06:44:31.264Z,27.27
2018-05-17T06:46:59.408Z,29.90
2018-05-17T06:49:27.521Z,27.27
2018-05-17T06:51:55.678Z,30.17
2018-05-17T06:54:23.712Z,27.70
2018-05-17T06:56:51.874Z,27.93
2018-05-17T06:59:20.045Z,28.67
2018-05-17T07:01:48.197Z,27.07
2018-05-17T07:04:17.096Z,26.50
2018-05-17T07:06:45.273Z,27.87
2018-05-17T07:09:13.412Z,28.33
2018-05-17T07:11:41.521Z,26.67
2018-05-17T07:14:09.648Z,26.63
2018-05-17T07:16:38.530Z,25.50
2018-05-17T07:19:06.664Z,22.83
2018-05-17T07:21:34.765Z,20.43
2018-05-17T07:24:03.012Z,19.73
2018-05-17T07:26:31.064Z,18.60
2018-05-17T07:28:59.211Z,19.00
2018-05-17T07:31:27.367Z,18.67
2018-05-17T07:33:55.527Z,17.03
2018-05-17T07:36:23.617Z,20.13
2018-05-17T07:38:52.479Z,19.37
2018-05-17T07:41:20.619Z,20.87
2018-05-17T07:43:49.540Z,21.33
2018-05-17T07:46:17.662Z,22.40
2018-05-17T07:48:45.772Z,20.80
2018-05-17T07:51:13.875Z,22.70
2018-05-17T07:53:42.808Z,21.77
2018-05-17T07:56:10.894Z,19.53
2018-05-17T07:58:39.015Z,17.90
2018-05-17T08:01:07.372Z,18.10
2018-05-17T08:03:35.524Z,18.57
2018-05-17T08:06:04.419Z,19.47
2018-05-17T08:08:32.579Z,20.80
2018-05-17T08:11:00.662Z,21.87
2018-05-17T08:13:28.777Z,23.03
2018-05-17T08:15:56.930Z,26.43
2018-05-17T08:18:25.031Z,25.23
2018-05-17T08:20:53.917Z,27.20
2018-05-17T08:23:22.001Z,29.67
2018-05-17T08:25:50.208Z,29.53
2018-05-17T08:28:18.352Z,27.87
2018-05-17T08:30:46.476Z,29.60
2018-05-17T08:33:14.644Z,31.00
2018-05-17T08:35:42.777Z,27.87
2018-05-17T08:38:11.636Z,29.10
2018-05-17T08:40:39.755Z,30.40
2018-05-17T08:43:07.861Z,28.57
2018-05-17T08:45:36.822Z,27.57
2018-05-17T08:48:05.636Z,28.17
2018-05-17T08:50:33.807Z,28.80
2018-05-17T08:53:01.885Z,28.53
2018-05-17T08:55:29.989Z,28.20
2018-05-17T08:57:58.104Z,29.27
2018-05-17T09:00:26.997Z,29.30
2018-05-17T09:02:55.864Z,27.67
2018-05-17T09:05:24.041Z,28.53
2018-05-17T09:07:52.134Z,28.57
2018-05-17T09:10:20.215Z,26.60
2018-05-17T09:12:48.312Z,28.90
2018-05-17T09:15:16.418Z,28.60
2018-05-17T09:17:44.517Z,23.63
2018-05-17T09:20:13.529Z,25.67
2018-05-17T09:22:41.534Z,27.30
2018-05-17T09:25:09.619Z,26.77
2018-05-17T09:27:37.698Z,26.70
2018-05-17T09:30:05.803Z,26.73
2018-05-17T09:32:33.935Z,26.17
2018-05-17T09:35:02.066Z,25.07
2018-05-17T09:37:30.180Z,25.07
2018-05-17T09:39:58.313Z,24.63
2018-05-17T09:42:26.444Z,24.37
2018-05-17T09:44:54.542Z,22.63
2018-05-17T09:47:22.645Z,20.97
2018-05-17T09:49:50.747Z,20.13
2018-05-17T09:52:19.689Z,20.87
2018-05-17T09:54:47.805Z,20.40
2018-05-17T09:57:15.876Z,21.03
2018-05-17T09:59:43.959Z,19.33
2018-05-17T10:02:12.098Z,19.50
2018-05-17T10:04:40.227Z,18.73
2018-05-17T10:07:08.324Z,19.70
2018-05-17T10:09:36.434Z,19.90
2018-05-17T10:12:04.549Z,18.03
2018-05-17T10:14:32.699Z,18.30
2018-05-17T10:17:00.758Z,19.30
2018-05-17T10:19:28.881Z,20.13
2018-05-17T10:21:57.818Z,22.33
2018-05-17T10:24:25.927Z,20.03
2018-05-17T10:26:54.072Z,23.70
2018-05-17T10:29:22.204Z,22.03
2018-05-17T10:31:50.350Z,20.63
2018-05-17T10:36:51.844Z,19.13
2018-05-17T10:39:19.949Z,19.97
2018-05-17T10:41:48.070Z,18.17
2018-05-17T10:44:16.179Z,19.30
2018-05-17T10:46:45.076Z,18.83
2018-05-17T10:49:13.950Z,21.20
2018-05-17T10:51:42.051Z,20.33
2018-05-17T10:54:10.150Z,21.60
2018-05-17T10:56:38.265Z,20.63
2018-05-17T10:59:06.411Z,20.73
2018-05-17T11:01:34.511Z,19.40
2018-05-17T11:04:03.381Z,20.37
2018-05-17T11:06:31.484Z,21.10
2018-05-17T11:09:00.359Z,20.93
2018-05-17T11:11:28.471Z,22.03
2018-05-17T11:13:57.348Z,20.70
2018-05-17T11:16:25.507Z,22.27
2018-05-17T11:18:53.612Z,19.97
2018-05-17T11:21:21.760Z,19.83
2018-05-17T11:23:49.854Z,20.13
2018-05-17T11:26:17.963Z,20.00
2018-05-17T11:28:46.084Z,21.87
2018-05-17T11:31:14.193Z,19.87
2018-05-17T11:33:42.333Z,20.23
2018-05-17T11:36:10.435Z,20.03
2018-05-17T11:38:38.592Z,20.80
2018-05-17T11:41:07.435Z,19.67
2018-05-17T11:43:36.308Z,19.43
2018-05-17T11:46:04.424Z,20.17
2018-05-17T11:48:33.294Z,18.93
2018-05-17T11:51:01.398Z,19.47
2018-05-17T11:53:29.522Z,19.63
2018-05-17T11:55:57.687Z,19.47
2018-05-17T11:58:25.773Z,19.40
2018-05-17T12:00:54.664Z,20.47
2018-05-17T12:03:22.790Z,17.77
2018-05-17T12:05:50.900Z,19.57
2018-05-17T12:08:18.991Z,17.80
2018-05-17T12:10:47.085Z,18.77
2018-05-17T12:13:15.262Z,18.37
2018-05-17T12:15:43.361Z,19.67
2018-05-17T12:18:11.496Z,17.93
2018-05-17T12:20:39.636Z,18.37
2018-05-17T12:23:07.880Z,19.03
2018-05-17T12:25:35.917Z,19.33
2018-05-17T12:28:04.060Z,17.60
2018-05-17T12:30:32.201Z,17.77
2018-05-17T12:33:00.293Z,18.07
2018-05-17T12:35:29.197Z,16.90
2018-05-17T12:37:58.092Z,17.10
2018-05-17T12:40:26.971Z,17.83
2018-05-17T12:42:55.159Z,17.17
2018-05-17T12:45:23.963Z,16.17
2018-05-17T12:47:52.071Z,16.70
2018-05-17T12:50:20.999Z,16.67
2018-05-17T12:52:49.108Z,16.53
2018-05-17T12:55:17.213Z,16.20
2018-05-17T12:57:45.307Z,16.03
2018-05-17T13:00:13.483Z,16.33
2018-05-17T13:02:41.521Z,18.13
2018-05-17T13:05:28.377Z,16.87
2018-05-17T13:07:56.483Z,17.20
2018-05-17T13:10:24.603Z,16.27
2018-05-17T13:12:52.765Z,15.77
2018-05-17T13:15:20.865Z,14.10
2018-05-17T13:17:49.726Z,15.33
2018-05-17T13:20:17.837Z,14.80
2018-05-17T13:22:45.919Z,14.60
2018-05-17T13:25:13.997Z,14.50
2018-05-17T13:27:42.114Z,14.90
2018-05-17T13:30:10.287Z,13.53
2018-05-17T13:32:38.348Z,14.83
2018-05-17T13:35:06.456Z,15.33
2018-05-17T13:37:35.367Z,14.07
2018-05-17T13:40:03.433Z,13.43
2018-05-17T13:42:31.548Z,13.63
2018-05-17T13:44:59.657Z,13.00
2018-05-17T13:47:27.769Z,12.07
2018-05-17T13:49:55.867Z,12.83
2018-05-17T13:52:23.979Z,12.47
2018-05-17T13:54:52.881Z,12.37
2018-05-17T13:57:21.767Z,12.03
2018-05-17T13:59:49.900Z,12.90
2018-05-17T14:02:18.167Z,11.13
2018-05-17T14:04:46.946Z,12.77
2018-05-17T14:07:15.092Z,12.07
2018-05-17T14:09:43.188Z,12.13
2018-05-17T14:12:11.337Z,11.73
2018-05-17T14:14:39.431Z,13.13
2018-05-17T14:17:07.561Z,13.10
2018-05-17T14:19:35.683Z,12.93
2018-05-17T14:22:04.579Z,13.43
2018-05-17T14:24:32.704Z,13.50
2018-05-17T14:27:00.812Z,14.50
2018-05-17T14:29:28.910Z,11.73
2018-05-17T14:31:57.846Z,11.07
2018-05-17T14:34:26.724Z,12.00
2018-05-17T14:36:55.663Z,11.63
2018-05-17T14:39:23.789Z,11.60
2018-05-17T14:41:51.923Z,12.10
2018-05-17T14:44:20.781Z,11.80
2018-05-17T14:46:48.897Z,11.13
2018-05-17T14:49:17.756Z,11.43
2018-05-17T14:51:45.873Z,11.67
2018-05-17T14:54:14.736Z,11.47
2018-05-17T14:56:42.888Z,11.57
2018-05-17T14:59:11.007Z,11.40
2018-05-17T15:01:39.146Z,12.47
2018-05-17T15:04:08.004Z,12.07
2018-05-17T15:06:36.116Z,12.80
2018-05-17T15:09:05.111Z,11.07
2018-05-17T15:11:33.209Z,11.13
2018-05-17T15:14:01.423Z,11.57
2018-05-17T15:16:29.451Z,10.23
2018-05-17T15:18:57.599Z,9.80
2018-05-17T15:21:25.756Z,10.20
2018-05-17T15:23:53.851Z,9.00
2018-05-17T15:26:22.703Z,9.00
2018-05-17T15:28:50.813Z,8.83
2018-05-17T15:31:18.960Z,8.13
2018-05-17T15:33:47.111Z,9.30
2018-05-17T15:36:15.287Z,8.37
2018-05-17T15:38:43.322Z,8.70
2018-05-17T15:41:11.417Z,9.10
2018-05-17T15:43:39.516Z,9.10
2018-05-17T15:46:07.658Z,9.07
2018-05-17T15:48:35.761Z,8.83
2018-05-17T15:51:03.891Z,8.70
2018-05-17T15:53:32.072Z,8.03
2018-05-17T15:56:00.152Z,8.10
2018-05-17T15:58:28.242Z,8.10
2018-05-17T16:00:56.385Z,7.50
2018-05-17T16:03:24.565Z,7.70
2018-05-17T16:05:52.647Z,7.73
2018-05-17T16:08:20.768Z,7.87
2018-05-17T16:10:48.898Z,8.13
2018-05-17T16:13:17.752Z,8.57
2018-05-17T16:15:45.993Z,7.97
2018-05-17T16:18:13.960Z,7.67
2018-05-17T16:20:42.837Z,7.77
2018-05-17T16:23:12.477Z,7.60
2018-05-17T16:25:40.598Z,8.03
2018-05-17T16:28:08.710Z,8.33
2018-05-17T16:30:36.813Z,9.00
2018-05-17T16:33:04.919Z,9.03
2018-05-17T16:35:33.788Z,8.93
2018-05-17T16:38:01.888Z,9.10
2018-05-17T16:40:30.011Z,8.20
2018-05-17T16:42:58.091Z,8.93
2018-05-17T16:45:26.955Z,9.90
2018-05-17T16:47:55.057Z,10.47
2018-05-17T16:50:23.221Z,9.73
2018-05-17T16:52:51.386Z,11.10
2018-05-17T16:55:20.949Z,10.00
2018-05-17T16:57:49.062Z,10.67
2018-05-17T17:00:17.936Z,11.47
2018-05-17T17:02:46.800Z,11.73
2018-05-17T17:05:14.958Z,12.17
2018-05-17T17:07:43.041Z,11.93
2018-05-17T17:10:11.160Z,11.47
2018-05-17T17:12:39.262Z,12.23
2018-05-17T17:15:07.401Z,11.60
2018-05-17T17:17:35.526Z,11.63
2018-05-17T17:20:03.613Z,12.67
2018-05-17T17:22:31.712Z,13.40
2018-05-17T17:24:59.857Z,11.87
2018-05-17T17:27:27.963Z,14.30
2018-05-17T17:29:56.133Z,13.47
2018-05-17T17:32:24.235Z,14.17
2018-05-17T17:34:52.371Z,13.70
2018-05-17T17:37:20.457Z,13.57
2018-05-17T17:39:48.567Z,14.37
2018-05-17T17:42:16.641Z,12.97
2018-05-17T17:44:44.744Z,13.57
2018-05-17T17:47:12.861Z,13.57
2018-05-17T17:49:40.991Z,12.43
2018-05-17T17:52:09.102Z,12.47
2018-05-17T17:54:37.202Z,13.93
2018-05-17T17:57:06.143Z,13.57
2018-05-17T17:59:35.016Z,13.73
2018-05-17T18:02:03.151Z,14.67
2018-05-17T18:04:31.261Z,13.30
2018-05-17T18:06:59.414Z,12.97
2018-05-17T18:09:27.513Z,12.80
2018-05-17T18:11:55.632Z,13.40
2018-05-17T18:14:23.736Z,13.77
2018-05-17T18:16:51.831Z,13.53
2018-05-17T18:19:20.747Z,14.07
2018-05-17T18:21:49.657Z,13.80
2018-05-17T18:24:17.752Z,14.97
2018-05-17T18:26:45.854Z,14.80
2018-05-17T18:29:13.999Z,16.73
2018-05-17T18:31:42.872Z,14.87
2018-05-17T18:34:10.963Z,15.47
2018-05-17T18:36:39.081Z,15.97
2018-05-17T18:39:07.949Z,14.43
2018-05-17T18:41:36.055Z,16.67
2018-05-17T18:44:04.924Z,15.87
2018-05-17T18:46:33.071Z,16.30
2018-05-17T18:49:01.256Z,17.57
2018-05-17T18:51:29.287Z,17.73
2018-05-17T18:53:57.405Z,18.73
2018-05-17T18:56:26.280Z,18.40
2018-05-17T18:58:54.384Z,15.90
2018-05-17T19:01:23.263Z,15.70
2018-05-17T19:03:51.890Z,17.33
2018-05-17T19:06:20.742Z,15.80
2018-05-17T19:08:48.870Z,15.37
2018-05-17T19:11:16.952Z,16.13
2018-05-17T19:13:45.107Z,16.27
2018-05-17T19:16:13.200Z,16.23
2018-05-17T19:18:41.304Z,16.93
2018-05-17T19:21:09.419Z,17.23
2018-05-17T19:23:37.556Z,17.60
2018-05-17T19:26:05.669Z,18.13
2018-05-17T19:28:34.549Z,17.93
2018-05-17T19:31:02.661Z,19.40
2018-05-17T19:33:30.779Z,20.93
2018-05-17T19:35:58.904Z,19.93
2018-05-17T19:38:27.024Z,19.10
2018-05-17T19:40:55.898Z,18.50
2018-05-17T19:43:24.025Z,17.37
2018-05-17T19:45:52.132Z,17.67
2018-05-17T19:48:20.329Z,18.30
2018-05-17T19:50:48.443Z,19.30
2018-05-17T19:53:18.110Z,17.87
2018-05-17T19:55:46.232Z,18.77
2018-05-17T19:58:14.365Z,19.83
2018-05-17T20:00:43.234Z,20.43
2018-05-17T20:03:11.399Z,19.43
2018-05-17T20:05:39.503Z,19.27
2018-05-17T20:08:07.641Z,19.63
2018-05-17T20:10:35.769Z,20.13
2018-05-17T20:13:03.935Z,19.37
2018-05-17T20:15:32.074Z,20.37
2018-05-17T20:18:00.942Z,20.30
2018-05-17T20:20:29.057Z,21.90
2018-05-17T20:22:57.928Z,21.20
2018-05-17T20:25:26.032Z,21.90
2018-05-17T20:27:54.887Z,22.67
2018-05-17T20:30:23.020Z,20.97
2018-05-17T20:32:51.131Z,22.40
2018-05-17T20:35:19.999Z,21.70
2018-05-17T20:37:48.122Z,22.93
2018-05-17T20:40:16.225Z,23.23
2018-05-17T20:42:44.294Z,21.03
2018-05-17T20:45:12.456Z,21.20
2018-05-17T20:47:40.554Z,22.43
2018-05-17T20:50:09.462Z,23.93
2018-05-17T20:52:38.315Z,20.97
2018-05-17T20:55:06.464Z,23.57
2018-05-17T20:57:35.324Z,24.03
2018-05-17T21:00:04.048Z,24.23
2018-05-17T21:02:32.643Z,22.87
2018-05-17T21:05:02.262Z,23.27
2018-05-17T21:07:30.748Z,22.80
2018-05-17T21:10:00.436Z,24.33
2018-05-17T21:12:29.055Z,26.87
2018-05-17T21:14:57.474Z,25.83
2018-05-17T21:17:26.374Z,24.30
2018-05-17T21:19:54.596Z,26.67
2018-05-17T21:22:22.703Z,24.83
2018-05-17T21:24:50.803Z,26.33
2018-05-17T21:27:18.967Z,24.40
2018-05-17T21:29:47.827Z,24.00
2018-05-17T21:32:16.707Z,24.57
2018-05-17T21:34:44.796Z,26.50
2018-05-17T21:37:12.914Z,27.77
2018-05-17T21:39:41.845Z,25.87
2018-05-17T21:42:09.858Z,27.87
2018-05-17T21:44:38.005Z,26.53
2018-05-17T21:47:06.103Z,27.57
2018-05-17T21:49:34.195Z,26.43
2018-05-17T21:52:02.357Z,25.37
2018-05-17T21:54:30.493Z,26.73
2018-05-17T21:56:58.642Z,26.83
2018-05-17T21:59:26.738Z,26.80
2018-05-17T22:01:54.911Z,27.53
2018-05-17T22:04:23.022Z,27.77
2018-05-17T22:06:51.132Z,25.57
2018-05-17T22:09:19.230Z,28.30
2018-05-17T22:11:47.332Z,26.57
2018-05-17T22:14:15.460Z,29.27
2018-05-17T22:16:43.613Z,29.10
2018-05-17T22:19:11.721Z,28.50
2018-05-17T22:21:40.423Z,30.17
2018-05-17T22:24:08.545Z,25.37
2018-05-17T22:26:37.422Z,28.00
2018-05-17T22:29:05.545Z,28.67
2018-05-17T22:31:33.668Z,25.97
2018-05-17T22:34:01.819Z,27.30
2018-05-17T22:36:29.922Z,26.87
2018-05-17T22:38:58.023Z,26.20
2018-05-17T22:41:26.136Z,24.97
2018-05-17T22:43:54.240Z,23.83
2018-05-17T22:46:23.116Z,25.97
2018-05-17T22:48:51.238Z,25.50
2018-05-17T22:51:19.323Z,25.17
2018-05-17T22:53:48.216Z,23.83
2018-05-17T22:56:28.920Z,24.57
2018-05-17T22:58:57.022Z,21.80
2018-05-17T23:01:25.164Z,21.47
2018-05-17T23:03:53.350Z,21.73
2018-05-17T23:06:21.487Z,22.60
2018-05-17T23:08:49.624Z,22.20
2018-05-17T23:11:18.483Z,20.93
2018-05-17T23:13:46.634Z,20.47
2018-05-17T23:16:14.738Z,19.23
2018-05-17T23:18:42.842Z,20.43
2018-05-17T23:21:10.948Z,18.17
2018-05-17T23:23:39.077Z,17.53
2018-05-17T23:26:07.190Z,19.37
2018-05-17T23:28:35.316Z,19.10
2018-05-17T23:31:03.421Z,18.63
2018-05-17T23:33:32.292Z,18.60
2018-05-17T23:36:00.386Z,17.83
2018-05-17T23:38:28.527Z,16.40
2018-05-17T23:41:09.358Z,16.00
2018-05-17T23:43:37.494Z,16.03
2018-05-17T23:46:05.609Z,15.37
2018-05-17T23:48:33.748Z,17.37
2018-05-17T23:51:01.852Z,17.47
2018-05-17T23:53:29.977Z,19.43
2018-05-17T23:55:58.076Z,19.80
2018-05-17T23:58:26.159Z,18.47
